Time;durP1;ratioP1;P1;durP2;ratioP2;P2;SDS_P1;SDS_P2;PMS_P1;PMS_P2;Temp;Humidity;BMP_temperature;BMP_pressure;BME280_temperature;BME280_humidity;BME280_pressure;Samples;Min_cycle;Max_cycle;Signal;HPM_P1;HPM_P2
2022/04/17 00:00:48;;;;;;;5.90;3.27;;;;;;;-142.75;100.00;78958.75;4962532;28;20021;-64
2022/04/17 00:03:14;;;;;;;6.03;2.83;;;;;;;-142.75;100.00;78960.72;4982368;28;20576;-65
2022/04/17 00:05:39;;;;;;;6.57;3.67;;;;;;;-142.75;100.00;78964.69;4972906;28;20033;-65
2022/04/17 00:08:08;;;;;;;9.77;3.92;;;;;;;-142.75;100.00;78966.66;4966450;28;20326;-65
2022/04/17 00:10:34;;;;;;;7.63;3.60;;;;;;;-142.75;100.00;78972.56;4978611;28;20025;-64
2022/04/17 00:12:59;;;;;;;5.35;3.30;;;;;;;-142.75;100.00;78976.50;4966553;28;20169;-64
2022/04/17 00:15:25;;;;;;;6.57;3.53;;;;;;;-142.75;100.00;78980.44;4980771;28;20318;-64
2022/04/17 00:17:50;;;;;;;9.00;3.45;;;;;;;-142.75;100.00;78982.41;4973303;28;20441;-64
2022/04/17 00:20:17;;;;;;;6.40;3.15;;;;;;;-142.75;100.00;78992.25;4977087;28;20291;-65
2022/04/17 00:22:43;;;;;;;7.33;3.67;;;;;;;-142.75;100.00;78996.19;4975510;28;20083;-64
2022/04/17 00:25:09;;;;;;;5.47;3.20;;;;;;;-142.75;100.00;78998.16;4980160;28;20358;-64
2022/04/17 00:27:35;;;;;;;5.80;2.93;;;;;;;-142.75;100.00;79006.03;4978488;28;20144;-64
2022/04/17 00:30:01;;;;;;;;;;;;;;;-142.75;100.00;79015.88;4983817;28;20124;-63
2022/04/17 00:32:27;;;;;;;6.63;3.30;;;;;;;-142.75;100.00;79023.75;4976878;28;19951;-63
2022/04/17 00:34:53;;;;;;;4.22;3.25;;;;;;;-142.75;100.00;79027.69;4972619;28;20190;-63
2022/04/17 00:37:18;;;;;;;5.57;3.40;;;;;;;-142.75;100.00;79027.69;4979981;28;20369;-63
2022/04/17 00:39:43;;;;;;;6.38;3.30;;;;;;;-142.75;100.00;79029.66;4976009;28;20480;-63
2022/04/17 00:42:10;;;;;;;8.05;3.78;;;;;;;-142.75;100.00;79035.59;4963836;28;20425;-63
2022/04/17 00:44:36;;;;;;;5.00;3.40;;;;;;;-142.75;100.00;79045.44;4979831;28;20048;-63
2022/04/17 00:47:02;;;;;;;5.00;3.53;;;;;;;-142.75;100.00;79045.44;4985472;28;20863;-64
2022/04/17 00:49:28;;;;;;;;;;;;;;;-142.75;100.00;79055.28;4979249;28;20029;-64
2022/04/17 00:51:54;;;;;;;6.73;3.70;;;;;;;-142.75;100.00;79053.31;4963646;28;20274;-65
2022/04/17 00:54:20;;;;;;;7.28;3.75;;;;;;;-142.75;100.00;79057.25;4973239;28;20028;-66
2022/04/17 00:56:48;;;;;;;6.30;3.60;;;;;;;-142.75;100.00;79053.31;4973612;28;20611;-63
2022/04/17 00:59:15;;;;;;;7.27;3.50;;;;;;;-142.75;100.00;79057.25;4967734;28;20557;-63
2022/04/17 01:01:41;;;;;;;7.00;4.20;;;;;;;-142.75;100.00;79063.16;4976895;28;20024;-63
2022/04/17 01:04:07;;;;;;;6.40;3.58;;;;;;;-142.75;100.00;79053.31;4971756;28;20311;-63
2022/04/17 01:06:33;;;;;;;6.57;3.22;;;;;;;-142.75;100.00;79063.16;4968565;28;20028;-64
2022/04/17 01:09:00;;;;;;;8.90;4.07;;;;;;;-142.75;100.00;79065.13;4980519;28;20739;-65
2022/04/17 01:11:26;;;;;;;8.17;4.23;;;;;;;-142.75;100.00;79074.97;4974165;28;20029;-66
2022/04/17 01:13:52;;;;;;;;;;;;;;;-142.75;100.00;79067.09;4971098;28;20033;-66
2022/04/17 01:16:18;;;;;;;9.87;4.40;;;;;;;-142.75;100.00;79076.94;4980906;28;20103;-65
2022/04/17 01:18:53;;;;;;;;;;;;;;;-142.75;100.00;79088.75;4983141;28;20020;-65
2022/04/17 01:21:18;;;;;;;8.00;4.63;;;;;;;-142.75;100.00;79086.78;4984392;28;19974;-65
2022/04/17 01:29:12;;;;;;;10.03;5.30;;;;;;;-142.75;100.00;79094.69;4971857;28;20431;-63
2022/04/17 01:31:37;;;;;;;7.93;4.35;;;;;;;-142.75;100.00;79098.63;4980894;28;20807;-63
2022/04/17 01:34:03;;;;;;;6.88;4.35;;;;;;;-142.75;100.00;79108.47;4973916;28;20477;-63
2022/04/17 01:36:28;;;;;;;6.43;4.13;;;;;;;-142.75;100.00;79118.31;4964524;28;20451;-63
2022/04/17 01:38:54;;;;;;;10.18;5.32;;;;;;;-142.75;100.00;79118.31;4978477;28;20299;-63
2022/04/17 01:41:19;;;;;;;8.77;4.88;;;;;;;-142.75;100.00;79126.19;4980705;28;20487;-63
2022/04/17 01:43:45;;;;;;;10.98;5.25;;;;;;;-142.75;100.00;79118.31;4977108;28;20361;-63
2022/04/17 01:46:11;;;;;;;8.35;4.53;;;;;;;-142.75;100.00;79132.09;4984019;28;20423;-63
2022/04/17 01:48:36;;;;;;;7.93;4.82;;;;;;;-142.75;100.00;79124.22;4979579;28;20514;-63
2022/04/17 01:51:01;;;;;;;8.60;4.95;;;;;;;-142.75;100.00;79128.16;4971050;28;20034;-63
2022/04/17 01:53:27;;;;;;;9.55;5.32;;;;;;;-142.75;100.00;79141.94;4975919;28;20329;-63
2022/04/17 01:55:52;;;;;;;6.28;4.25;;;;;;;-142.75;100.00;79141.94;4973678;28;20422;-64
2022/04/17 01:58:18;;;;;;;8.00;5.47;;;;;;;-142.75;100.00;79143.91;4975315;28;20343;-63
2022/04/17 02:00:43;;;;;;;9.43;5.60;;;;;;;-142.75;100.00;79138.00;4981035;28;20493;-63
2022/04/17 02:03:09;;;;;;;9.73;5.20;;;;;;;-142.75;100.00;79141.94;4967899;28;20329;-63
2022/04/17 02:05:34;;;;;;;10.68;5.30;;;;;;;-142.75;100.00;79145.88;4977632;28;20423;-63
2022/04/17 02:07:59;;;;;;;8.07;5.43;;;;;;;-142.75;100.00;79155.72;4972045;28;20381;-63
2022/04/17 02:10:25;;;;;;;9.10;5.47;;;;;;;-142.75;100.00;79153.75;4965334;28;20331;-63
2022/04/17 02:12:52;;;;;;;10.43;5.03;;;;;;;-142.75;100.00;79153.75;4965161;28;20886;-64
2022/04/17 02:15:17;;;;;;;8.90;4.78;;;;;;;-142.75;100.00;79151.78;4963313;28;20057;-63
2022/04/17 02:17:43;;;;;;;10.95;5.10;;;;;;;-142.75;100.00;79153.75;4972269;28;20409;-63
2022/04/17 02:20:11;;;;;;;11.52;5.43;;;;;;;-142.75;100.00;79155.72;4983228;28;20427;-63
2022/04/17 02:22:36;;;;;;;11.13;5.73;;;;;;;-142.75;100.00;79151.78;4983133;28;20165;-63
2022/04/17 02:25:01;;;;;;;8.55;5.47;;;;;;;-142.75;100.00;79149.81;4982897;28;20082;-63
2022/04/17 02:27:27;;;;;;;9.77;5.85;;;;;;;-142.75;100.00;79153.75;4980842;28;20412;-63
2022/04/17 02:29:52;;;;;;;7.50;4.80;;;;;;;-142.75;100.00;79155.72;4983050;28;20373;-64
2022/04/17 02:32:18;;;;;;;10.63;5.65;;;;;;;-142.75;100.00;79167.56;4996459;28;20523;-63
2022/04/17 02:34:43;;;;;;;9.27;5.32;;;;;;;-142.75;100.00;79173.47;4973310;28;20049;-63
2022/04/17 02:37:09;;;;;;;10.23;5.32;;;;;;;-142.75;100.00;79161.66;4967021;28;20333;-63
2022/04/17 02:39:35;;;;;;;9.77;5.25;;;;;;;-142.75;100.00;79161.66;4976577;28;20334;-63
2022/04/17 02:42:01;;;;;;;9.80;5.33;;;;;;;-142.75;100.00;79161.66;4971806;28;20033;-63
2022/04/17 02:44:26;;;;;;;9.82;5.25;;;;;;;-142.75;100.00;79165.59;4958680;28;20325;-64
2022/04/17 02:49:36;;;;;;;7.80;5.03;;;;;;;-142.75;100.00;79165.59;4968202;28;20104;-63
2022/04/17 02:52:01;;;;;;;10.80;5.25;;;;;;;-142.75;100.00;79165.59;4974203;28;20380;-64
2022/04/17 02:54:27;;;;;;;10.32;5.47;;;;;;;-142.75;100.00;79159.69;4980696;28;20376;-63
2022/04/17 02:56:52;;;;;;;10.85;6.00;;;;;;;-142.75;100.00;79161.66;4982614;28;20353;-63
2022/04/17 02:59:17;;;;;;;10.82;6.05;;;;;;;-142.75;100.00;79161.66;4990547;28;20021;-63
2022/04/17 03:07:11;;;;;;;10.17;5.47;;;;;;;-142.75;100.00;79163.63;4968757;28;20572;-64
2022/04/17 03:09:37;;;;;;;10.50;5.80;;;;;;;-142.75;100.00;79163.63;4963740;28;20025;-63
2022/04/17 03:12:03;;;;;;;14.25;5.32;;;;;;;-142.75;100.00;79165.59;4971882;28;20449;-64
2022/04/17 03:14:28;;;;;;;9.93;5.93;;;;;;;-142.75;100.00;79173.47;4978860;28;20309;-64
2022/04/17 03:16:54;;;;;;;7.95;5.50;;;;;;;-142.75;100.00;79173.47;4971580;28;20244;-63
2022/04/17 03:19:19;;;;;;;12.75;6.68;;;;;;;-142.75;100.00;79177.41;4966645;28;20364;-64
2022/04/17 03:21:44;;;;;;;10.45;5.95;;;;;;;-142.75;100.00;79181.34;4962443;28;20381;-63
2022/04/17 03:24:12;;;;;;;9.30;5.70;;;;;;;-142.75;100.00;79181.34;4968514;28;20338;-63
2022/04/17 03:26:41;;;;;;;9.93;5.60;;;;;;;-142.75;100.00;79177.41;4965274;28;20021;-63
2022/04/17 03:29:07;;;;;;;14.17;5.97;;;;;;;-142.75;100.00;79177.41;4976155;28;20086;-64
2022/04/17 03:31:32;;;;;;;8.82;5.38;;;;;;;-142.75;100.00;79179.38;4978393;28;20567;-64
2022/04/17 03:33:58;;;;;;;12.38;5.78;;;;;;;-142.75;100.00;79181.34;4982006;28;20404;-64
2022/04/17 03:36:23;;;;;;;10.80;5.25;;;;;;;-142.75;100.00;79181.34;4979869;28;20341;-63
2022/04/17 03:38:48;;;;;;;11.43;5.90;;;;;;;-142.75;100.00;79181.34;4972800;28;20343;-64
2022/04/17 03:41:14;;;;;;;9.32;5.30;;;;;;;-142.75;100.00;79181.34;4969621;28;20049;-63
2022/04/17 03:43:39;;;;;;;10.88;5.85;;;;;;;-142.75;100.00;79185.28;4975508;28;20337;-63
2022/04/17 03:46:05;;;;;;;10.88;6.15;;;;;;;-142.75;100.00;79181.34;4968802;28;20025;-64
2022/04/17 03:48:30;;;;;;;8.85;5.93;;;;;;;-142.75;100.00;79171.50;4967416;28;20284;-64
2022/04/17 03:50:56;;;;;;;11.70;6.05;;;;;;;-142.75;100.00;79185.28;4982142;28;20097;-64
2022/04/17 03:53:22;;;;;;;10.40;5.90;;;;;;;-142.75;100.00;79185.28;4972977;28;20368;-64
2022/04/17 03:55:47;;;;;;;8.02;5.28;;;;;;;-142.75;100.00;79181.34;4981082;28;20179;-63
2022/04/17 03:58:13;;;;;;;10.13;5.95;;;;;;;-142.75;100.00;79179.38;4975565;28;20031;-63
2022/04/17 04:00:38;;;;;;;11.55;6.40;;;;;;;-142.75;100.00;79179.38;4970980;28;20457;-64
2022/04/17 04:03:04;;;;;;;10.20;6.07;;;;;;;-142.75;100.00;79191.19;4977302;28;20314;-64
2022/04/17 04:05:29;;;;;;;10.95;5.65;;;;;;;-142.75;100.00;79197.09;4978961;28;20326;-65
2022/04/17 04:07:55;;;;;;;13.05;5.82;;;;;;;-142.75;100.00;79197.09;4968584;28;20386;-66
2022/04/17 04:10:20;;;;;;;10.75;5.95;;;;;;;-142.75;100.00;79193.16;4975668;28;20400;-66
2022/04/17 04:12:46;;;;;;;11.50;5.85;;;;;;;-142.75;100.00;79201.03;4974543;28;20326;-65
2022/04/17 04:15:11;;;;;;;8.65;5.80;;;;;;;-142.75;100.00;79199.06;4979190;28;20473;-65
2022/04/17 04:17:37;;;;;;;10.70;6.00;;;;;;;-142.75;100.00;79206.94;4962155;28;20319;-65
2022/04/17 04:20:04;;;;;;;9.93;5.88;;;;;;;-142.75;100.00;79210.88;4978970;28;20353;-65
2022/04/17 04:22:30;;;;;;;10.57;5.97;;;;;;;-142.75;100.00;79208.91;4978100;28;20064;-65
2022/04/17 04:24:55;;;;;;;11.00;6.13;;;;;;;-142.75;100.00;79212.84;4971293;28;20349;-65
2022/04/17 04:30:06;;;;;;;10.20;5.67;;;;;;;-142.75;100.00;79203.00;4971168;28;20215;-64
2022/04/17 04:32:31;;;;;;;8.98;5.88;;;;;;;-142.75;100.00;79193.16;4962169;28;20546;-65
2022/04/17 04:34:59;;;;;;;9.93;6.15;;;;;;;-142.75;100.00;79206.94;5004574;22;20038;-66
2022/04/17 04:37:25;;;;;;;10.27;5.07;;;;;;;-142.75;100.00;79210.88;4961626;28;20585;-64
2022/04/17 04:39:50;;;;;;;8.05;5.32;;;;;;;-142.75;100.00;79220.75;4972171;28;20065;-66
2022/04/17 04:42:17;;;;;;;11.15;6.40;;;;;;;-142.75;100.00;79212.84;4968087;28;20315;-66
2022/04/17 04:44:42;;;;;;;10.37;5.97;;;;;;;-142.75;100.00;79222.72;4973476;28;20051;-64
2022/04/17 04:47:08;;;;;;;9.50;6.35;;;;;;;-142.75;100.00;79228.63;4973855;28;20367;-66
2022/04/17 04:49:33;;;;;;;10.65;6.38;;;;;;;-142.75;100.00;79232.56;4972966;28;20429;-64
2022/04/17 04:52:03;;;;;;;10.55;6.32;;;;;;;-142.75;100.00;79232.56;4967455;28;20062;-66
2022/04/17 04:54:29;;;;;;;12.03;5.67;;;;;;;-142.75;100.00;79232.56;4968547;28;20025;-64
2022/04/17 04:56:55;;;;;;;;;;;;;;;-142.75;100.00;79232.56;4978390;28;20029;-65
2022/04/17 04:59:21;;;;;;;11.00;5.83;;;;;;;-142.75;100.00;79218.75;4974460;28;19948;-65
2022/04/17 05:01:47;;;;;;;9.38;5.88;;;;;;;-142.75;100.00;79226.66;4987457;28;20300;-65
2022/04/17 05:04:13;;;;;;;12.70;6.00;;;;;;;-142.75;100.00;79226.66;4972082;28;20087;-65
2022/04/17 05:06:39;;;;;;;10.43;6.05;;;;;;;-142.75;100.00;79212.84;4975473;28;20079;-65
2022/04/17 05:09:04;;;;;;;12.63;6.72;;;;;;;-142.75;100.00;79216.78;4982404;28;20343;-65
2022/04/17 05:11:31;;;;;;;8.73;5.68;;;;;;;-142.75;100.00;79212.84;4984466;28;20106;-64
2022/04/17 05:13:57;;;;;;;9.30;5.73;;;;;;;-142.75;100.00;79206.94;4979662;28;20051;-66
2022/04/17 05:16:22;;;;;;;10.02;6.30;;;;;;;-142.75;100.00;79197.09;4981809;28;20331;-64
2022/04/17 05:18:52;;;;;;;9.70;6.63;;;;;;;-142.75;100.00;79181.34;4973008;28;20344;-63
2022/04/17 05:21:20;;;;;;;10.43;6.17;;;;;;;-142.75;100.00;79169.53;4971060;28;20060;-65
2022/04/17 05:23:45;;;;;;;12.63;6.00;;;;;;;-142.75;100.00;79155.72;4979348;28;20017;-63
2022/04/17 05:26:11;;;;;;;9.90;5.90;;;;;;;-142.75;100.00;79143.91;4981466;28;20336;-64
2022/04/17 05:28:36;;;;;;;10.18;6.00;;;;;;;-142.75;100.00;79141.94;4967122;28;20165;-64
2022/04/17 05:31:02;;;;;;;11.68;6.03;;;;;;;-142.75;100.00;79130.13;4971151;28;20021;-63
2022/04/17 05:33:27;;;;;;;10.25;5.63;;;;;;;-142.75;100.00;79118.31;4984497;28;20025;-65
2022/04/17 05:35:53;;;;;;;9.70;5.45;;;;;;;-142.75;100.00;79098.63;4982287;28;20347;-64
2022/04/17 05:38:20;;;;;;;10.55;5.85;;;;;;;-142.75;100.00;79090.72;4986982;28;20453;-66
2022/04/17 05:40:48;;;;;;;10.60;5.50;;;;;;;-142.75;100.00;79082.84;4971846;28;20021;-64
2022/04/17 05:43:14;;;;;;;11.30;5.60;;;;;;;-142.75;100.00;79065.13;4976293;28;20064;-66
2022/04/17 05:45:41;;;;;;;10.35;5.45;;;;;;;-142.75;100.00;79049.38;4977447;28;20024;-65
2022/04/17 05:48:09;;;;;;;10.67;5.93;;;;;;;-142.75;100.00;79035.59;4979175;28;20033;-63
2022/04/17 05:50:36;;;;;;;9.83;5.70;;;;;;;-142.75;100.00;79027.69;4979976;28;20029;-64
2022/04/17 05:53:02;;;;;;;11.77;5.70;;;;;;;-142.75;100.00;79017.84;4968657;28;20048;-65
2022/04/17 05:55:27;;;;;;;9.25;5.82;;;;;;;-142.75;100.00;79008.00;4986308;28;20035;-64
2022/04/17 05:57:53;;;;;;;11.88;5.93;;;;;;;-142.75;100.00;78992.25;4986950;28;20017;-64
2022/04/17 06:00:18;;;;;;;7.47;4.93;;;;;;;-142.75;100.00;78980.44;4971743;28;20463;-64
2022/04/17 06:02:46;;;;;;;8.60;5.50;;;;;;;-142.75;100.00;78960.72;4976679;28;20336;-64
2022/04/17 06:05:13;;;;;;;8.13;4.67;;;;;;;-142.75;100.00;78937.09;4950021;28;20025;-64
2022/04/17 06:07:39;;;;;;;9.20;5.10;;;;;;;-142.75;100.00;78917.41;4970425;28;20029;-65
2022/04/17 06:10:07;;;;;;;10.07;5.53;;;;;;;-142.75;100.00;78919.38;4970932;28;20114;-64
2022/04/17 06:12:33;;;;;;;10.10;5.60;;;;;;;-142.75;100.00;78905.59;4966326;28;20026;-64
2022/04/17 06:14:58;;;;;;;;;;;;;;;-142.75;100.00;78883.91;4971937;28;20075;-65
2022/04/17 06:17:24;;;;;;;11.70;5.60;;;;;;;-142.75;100.00;78866.19;4985939;28;20238;-65
2022/04/17 06:19:50;;;;;;;9.80;5.22;;;;;;;-142.75;100.00;78858.31;4973828;28;20323;-65
2022/04/17 06:22:15;;;;;;;9.25;5.68;;;;;;;-142.75;100.00;78826.81;4969466;28;20340;-66
2022/04/17 06:24:41;;;;;;;8.98;5.88;;;;;;;-142.75;100.00;78818.91;4978333;28;20332;-65
2022/04/17 06:27:06;;;;;;;11.43;5.97;;;;;;;-142.75;100.00;78795.28;4971956;28;20502;-67
2022/04/17 06:29:32;;;;;;;9.77;5.95;;;;;;;-142.75;100.00;78777.56;4970655;28;20047;-66
2022/04/17 06:31:57;;;;;;;8.60;5.57;;;;;;;-142.75;100.00;78751.97;4985000;28;20499;-67
2022/04/17 06:34:23;;;;;;;9.60;5.53;;;;;;;-142.75;100.00;78755.91;4966328;28;20333;-65
2022/04/17 06:36:48;;;;;;;6.53;4.95;;;;;;;-142.75;100.00;78769.69;4973813;28;20309;-66
2022/04/17 06:39:14;;;;;;;8.70;5.50;;;;;;;-142.75;100.00;78736.19;4970544;28;20179;-66
2022/04/17 06:41:40;;;;;;;9.85;5.45;;;;;;;-142.75;100.00;78738.16;4966520;28;20294;-66
2022/04/17 06:44:05;;;;;;;;;;;;;;;-142.75;100.00;78750.00;4976221;28;20021;-67
2022/04/17 06:46:32;;;;;;;9.30;4.70;;;;;;;-142.75;100.00;78736.19;4973892;28;20129;-65
2022/04/17 06:48:58;;;;;;;9.47;5.17;;;;;;;-142.75;100.00;78757.88;4984750;28;20048;-67
2022/04/17 06:51:24;;;;;;;10.35;5.10;;;;;;;-142.75;100.00;78738.16;4977860;28;20351;-66
2022/04/17 06:53:50;;;;;;;8.33;5.03;;;;;;;-142.75;100.00;78728.31;4976880;28;20107;-66
2022/04/17 06:56:18;;;;;;;7.15;5.18;;;;;;;-142.75;100.00;78686.97;4964639;28;20032;-66
2022/04/17 06:58:49;;;;;;;8.97;5.53;;;;;;;-142.75;100.00;78677.13;4949020;28;20013;-66
2022/04/17 07:01:15;;;;;;;8.83;5.03;;;;;;;-142.75;100.00;78637.72;4962800;28;20132;-66
2022/04/17 07:03:41;;;;;;;6.85;4.80;;;;;;;-142.75;100.00;78625.91;4979136;28;20333;-65
2022/04/17 07:06:07;;;;;;;7.47;4.63;;;;;;;-142.75;100.00;78614.09;4979140;28;20037;-65
2022/04/17 07:08:33;;;;;;;7.95;4.82;;;;;;;-142.75;100.00;78578.63;4960845;28;20059;-65
2022/04/17 07:10:58;;;;;;;12.30;5.45;;;;;;;-142.75;97.41;78574.69;4974944;28;20333;-65
2022/04/17 07:13:24;;;;;;;8.00;4.95;;;;;;;-142.75;98.24;78556.97;4967438;28;20355;-65
2022/04/17 07:15:50;;;;;;;9.70;5.20;;;;;;;-142.75;98.23;78547.13;4969611;28;20037;-64
2022/04/17 07:18:15;;;;;;;9.73;4.40;;;;;;;-142.75;96.56;78535.31;4976988;28;20324;-64
2022/04/17 07:20:41;;;;;;;8.05;4.85;;;;;;;-142.75;91.10;78531.38;4973766;28;20323;-65
2022/04/17 07:23:07;;;;;;;7.13;4.57;;;;;;;-142.75;91.28;78537.28;4984513;28;20381;-65
2022/04/17 07:25:33;;;;;;;6.40;3.88;;;;;;;-142.75;87.43;78551.06;4968365;28;20377;-65
2022/04/17 07:27:58;;;;;;;7.43;4.23;;;;;;;-142.75;87.79;78525.47;4966304;28;20036;-65
2022/04/17 07:30:27;;;;;;;6.75;4.28;;;;;;;-142.75;91.77;78470.31;4980523;28;20202;-65
2022/04/17 07:32:55;;;;;;;9.88;5.40;;;;;;;-142.75;89.29;78442.75;4971152;28;20032;-65
2022/04/17 07:35:22;;;;;;;6.90;4.38;;;;;;;-142.75;84.38;78409.28;4970304;28;20086;-64
2022/04/17 07:37:53;;;;;;;7.18;4.32;;;;;;;-142.75;84.12;78399.44;4947921;28;20022;-64
2022/04/17 07:40:22;;;;;;;7.57;4.00;;;;;;;-142.75;84.21;78381.69;4965736;28;20036;-64
2022/04/17 07:42:49;;;;;;;7.00;3.95;;;;;;;-142.75;84.15;78344.28;4968197;28;20553;-65
2022/04/17 07:45:15;;;;;;;10.45;4.55;;;;;;;-142.75;82.66;78297.00;4953230;28;20133;-67
2022/04/17 07:47:42;;;;;;;10.13;4.70;;;;;;;-142.75;86.39;78269.44;4972162;28;20208;-64
2022/04/17 07:50:09;;;;;;;7.10;4.40;;;;;;;-142.75;81.08;78228.09;4975640;28;20431;-66
2022/04/17 07:52:35;;;;;;;7.68;4.10;;;;;;;-142.75;75.68;78192.66;4964205;28;20048;-66
2022/04/17 07:55:01;;;;;;;7.45;4.20;;;;;;;-142.75;73.77;78224.16;4964267;28;20323;-64
2022/04/17 07:57:27;;;;;;;5.72;4.03;;;;;;;-142.75;76.12;78212.34;4966042;28;20057;-63
2022/04/17 07:59:55;;;;;;;8.23;4.30;;;;;;;-142.75;72.52;78192.66;4964351;28;20339;-64
2022/04/17 08:02:28;;;;;;;6.35;3.90;;;;;;;-142.75;71.20;78192.66;4976028;28;20016;-64
2022/04/17 08:04:55;;;;;;;8.43;4.07;;;;;;;-142.75;73.21;78178.84;4970653;28;20136;-64
2022/04/17 08:07:23;;;;;;;6.40;3.67;;;;;;;-142.75;76.59;78125.69;4966789;28;20052;-63
2022/04/17 08:09:48;;;;;;;7.10;4.25;;;;;;;-142.75;70.61;78125.69;4951783;28;20025;-63
2022/04/17 08:12:14;;;;;;;5.15;3.38;;;;;;;-142.75;71.00;78088.28;4983928;28;20331;-64
2022/04/17 08:14:40;;;;;;;6.13;4.18;;;;;;;-142.75;71.23;78039.03;4984062;28;20055;-64
2022/04/17 08:17:05;;;;;;;7.40;4.30;;;;;;;-142.75;69.63;77999.66;4973635;28;20315;-64
2022/04/17 08:19:32;;;;;;;7.10;4.00;;;;;;;-142.75;69.52;77972.09;4969937;28;20322;-64
2022/04/17 08:21:58;;;;;;;7.72;3.65;;;;;;;-142.75;68.64;77938.63;4965805;28;20542;-63
2022/04/17 08:24:24;;;;;;;5.82;3.85;;;;;;;-142.75;67.91;77920.91;4982777;28;20152;-65
2022/04/17 08:26:49;;;;;;;5.18;3.33;;;;;;;-142.75;63.58;77913.03;4967951;28;20370;-63
2022/04/17 08:29:17;;;;;;;5.38;3.13;;;;;;;-142.75;63.39;77871.66;4968059;28;20029;-63
2022/04/17 08:31:42;;;;;;;5.70;3.85;;;;;;;-142.75;63.48;77859.84;4969621;28;20025;-63
2022/04/17 08:34:08;;;;;;;7.03;3.63;;;;;;;-142.75;64.53;77850.00;4968279;28;20320;-62
2022/04/17 08:36:33;;;;;;;7.28;3.53;;;;;;;-142.75;65.48;77842.13;4968276;28;20328;-63
2022/04/17 08:38:58;;;;;;;;;;;;;;;-142.75;61.77;77790.94;4988205;28;20327;-63
2022/04/17 08:41:26;;;;;;;5.95;3.30;;;;;;;-142.75;59.55;77794.88;4983419;28;20338;-63
2022/04/17 08:43:52;;;;;;;8.23;3.70;;;;;;;-142.75;59.80;77788.97;4987824;28;20047;-63
2022/04/17 08:46:18;;;;;;;7.47;3.53;;;;;;;-142.75;57.74;77792.91;4986107;28;20312;-63
2022/04/17 08:48:44;;;;;;;;;;;;;;;-142.75;59.63;77810.63;4980686;28;20353;-64
2022/04/17 08:51:09;;;;;;;6.40;3.47;;;;;;;-142.75;60.73;77836.22;4955341;28;19917;-64
2022/04/17 08:53:36;;;;;;;5.47;3.35;;;;;;;-142.75;60.52;77810.63;4970286;28;20463;-64
2022/04/17 08:56:01;;;;;;;6.82;3.47;;;;;;;-142.75;61.50;77753.53;4967168;28;20029;-63
2022/04/17 08:58:27;;;;;;;5.38;3.30;;;;;;;-142.75;58.94;77745.66;4973585;28;20444;-63
2022/04/17 09:00:52;;;;;;;;;;;;;;;-142.75;58.20;77696.41;4954914;28;20301;-64
2022/04/17 09:03:18;;;;;;;4.85;3.17;;;;;;;-142.75;60.79;77653.09;4971393;28;20322;-63
2022/04/17 09:05:43;;;;;;;;;;;;;;;-142.75;59.68;77613.72;4974708;28;20434;-64
2022/04/17 09:08:21;;;;;;;6.07;3.58;;;;;;;-142.75;60.96;77566.47;4983399;28;20239;-64
2022/04/17 09:10:57;;;;;;;7.68;3.60;;;;;;;-142.75;54.87;77617.66;4973106;28;20131;-66
2022/04/17 09:13:28;;;;;;;5.25;3.10;;;;;;;-142.75;58.85;77645.22;4966519;28;20053;-65
2022/04/17 09:15:53;;;;;;;9.70;3.50;;;;;;;-142.75;57.99;77617.66;4955320;28;20565;-66
2022/04/17 09:18:19;;;;;;;;;;;;;;;-142.75;57.79;77582.22;4967460;28;20064;-65
2022/04/17 09:20:46;;;;;;;6.57;3.50;;;;;;;-142.75;55.51;77570.41;4967065;28;19909;-65
2022/04/17 09:23:12;;;;;;;5.18;3.28;;;;;;;-142.75;57.07;77605.84;4964768;28;20207;-61
2022/04/17 09:25:37;;;;;;;;;;;;;;;-142.75;55.38;77590.09;4951780;28;20430;-65
2022/04/17 09:28:04;;;;;;;4.95;3.13;;;;;;;-142.75;55.67;77558.59;4969040;28;19913;-66
2022/04/17 09:30:33;;;;;;;5.55;3.53;;;;;;;-142.75;52.51;77519.22;4969716;28;20037;-66
2022/04/17 09:33:09;;;;;;;6.22;3.25;;;;;;;-142.75;57.38;77499.53;4966954;28;20052;-65
2022/04/17 09:35:35;;;;;;;5.93;3.30;;;;;;;-142.75;52.93;77493.63;4974913;28;20017;-66
2022/04/17 09:38:07;;;;;;;7.32;3.45;;;;;;;-142.75;52.03;77542.84;4967269;28;20174;-64
2022/04/17 09:40:33;;;;;;;4.47;3.10;;;;;;;-142.75;51.43;77505.44;4959359;28;20036;-65
2022/04/17 09:43:13;;;;;;;7.45;3.10;;;;;;;-142.75;51.21;77466.03;4974323;28;20152;-64
2022/04/17 09:46:08;;;;;;;5.80;3.67;;;;;;;-142.75;51.18;77452.25;4983501;28;20102;-64
2022/04/17 09:48:34;;;;;;;5.18;3.28;;;;;;;-142.75;54.56;77385.31;4976314;28;20026;-65
2022/04/17 09:51:01;;;;;;;4.60;3.28;;;;;;;-142.75;52.27;77381.38;4963633;28;20573;-63
2022/04/17 09:53:30;;;;;;;5.18;3.85;;;;;;;-142.75;48.37;77424.69;4966837;28;20091;-64
2022/04/17 09:56:06;;;;;;;5.75;3.63;;;;;;;-142.75;51.71;77426.66;4977470;28;20140;-64
2022/04/17 09:58:36;;;;;;;6.22;3.20;;;;;;;-142.75;49.01;77399.09;4974118;28;20179;-65
2022/04/17 10:01:03;;;;;;;4.93;3.55;;;;;;;-142.75;50.27;77406.97;4966406;28;20029;-64
2022/04/17 10:03:29;;;;;;;7.00;3.45;;;;;;;-142.75;49.92;77353.81;4981264;28;20847;-65
2022/04/17 10:05:54;;;;;;;;;;;;;;;-142.75;48.01;77357.75;4968943;28;20136;-65
2022/04/17 10:08:21;;;;;;;4.88;3.20;;;;;;;-142.75;43.78;77371.53;4966197;28;19913;-65
2022/04/17 10:10:46;;;;;;;5.35;3.63;;;;;;;-142.75;48.93;77338.06;4975420;28;20033;-66
2022/04/17 10:13:12;;;;;;;5.55;3.38;;;;;;;-142.75;55.20;77316.41;4976350;28;20316;-65
2022/04/17 10:15:38;;;;;;;;;;;;;;;-142.75;52.75;77251.44;4980225;28;20272;-65
2022/04/17 10:18:05;;;;;;;5.10;3.10;;;;;;;-142.75;47.11;77223.88;4973768;28;20310;-65
2022/04/17 10:20:30;;;;;;;5.53;2.97;;;;;;;-142.75;48.85;77217.97;4981695;28;20037;-66
2022/04/17 10:23:01;;;;;;;6.00;3.53;;;;;;;-142.75;44.42;77257.34;4985622;28;20025;-65
2022/04/17 10:25:27;;;;;;;4.75;2.97;;;;;;;-142.75;48.53;77257.34;4978281;28;20029;-66
2022/04/17 10:27:58;;;;;;;4.00;2.97;;;;;;;-142.75;47.49;77288.84;4972893;28;20439;-65
2022/04/17 10:30:34;;;;;;;6.38;2.88;;;;;;;-142.75;45.75;77257.34;4975401;28;20024;-65
2022/04/17 10:33:12;;;;;;;4.40;3.00;;;;;;;-142.75;49.01;77253.41;4972998;28;20037;-64
2022/04/17 10:36:31;;;;;;;5.53;3.00;;;;;;;-142.75;51.82;77247.50;4999457;22;20034;-66
2022/04/17 10:39:09;;;;;;;5.20;2.92;;;;;;;-142.75;46.74;77275.06;4885241;28;20453;-65
2022/04/17 10:41:34;;;;;;;6.43;2.88;;;;;;;-142.75;45.92;77259.31;4939930;28;20034;-65
2022/04/17 10:44:00;;;;;;;7.93;3.53;;;;;;;-142.75;51.55;77225.84;4951461;28;20095;-65
2022/04/17 10:46:26;;;;;;;6.32;4.20;;;;;;;-142.75;53.19;77192.38;4947931;28;20350;-65
2022/04/17 10:48:52;;;;;;;4.60;3.33;;;;;;;-142.75;48.53;77127.41;4948088;28;20353;-65
2022/04/17 10:51:24;;;;;;;6.78;3.22;;;;;;;-142.75;45.21;77123.47;4954719;28;20052;-65
2022/04/17 10:54:03;;;;;;;4.25;2.88;;;;;;;-142.75;38.62;77166.78;4959026;28;20038;-66
2022/04/17 10:56:32;;;;;;;8.35;3.95;;;;;;;-142.75;44.71;77190.41;4948479;28;20661;-66
2022/04/17 10:59:00;;;;;;;6.35;3.38;;;;;;;-142.75;45.48;77147.09;4955705;28;20558;-65
2022/04/17 11:01:41;;;;;;;5.40;3.25;;;;;;;-142.75;48.07;77129.38;4962633;28;20022;-66
2022/04/17 11:04:16;;;;;;;6.85;3.40;;;;;;;-142.75;43.30;77143.16;4957825;28;20608;-65
2022/04/17 11:06:43;;;;;;;6.60;3.25;;;;;;;-142.75;43.08;77182.53;4926118;28;20069;-66
2022/04/17 11:09:23;;;;;;;4.97;3.28;;;;;;;-142.75;47.30;77166.78;4940401;28;20107;-66
2022/04/17 11:11:49;;;;;;;5.68;3.25;;;;;;;-142.75;43.93;77149.06;4926047;28;20132;-65
2022/04/17 11:14:19;;;;;;;7.22;3.15;;;;;;;-142.75;41.79;77162.84;4949445;28;20112;-66
2022/04/17 11:16:58;;;;;;;3.88;2.83;;;;;;;-142.75;41.14;77182.53;4947598;28;20458;-66
2022/04/17 11:19:29;;;;;;;4.28;2.80;;;;;;;-142.75;39.29;77198.28;4963755;28;20025;-65
2022/04/17 11:21:59;;;;;;;5.55;3.17;;;;;;;-142.75;43.53;77206.16;4951816;28;20038;-66
2022/04/17 11:24:25;;;;;;;4.47;2.70;;;;;;;-142.75;41.34;77186.47;4948946;28;20570;-66
2022/04/17 11:26:50;;;;;;;4.88;3.08;;;;;;;-142.75;50.30;77156.94;4964572;28;20025;-65
2022/04/17 11:29:16;;;;;;;;;;;;;;;-142.75;45.23;77131.34;4958551;28;20033;-65